createdAt,value
2022-08-26T00:01:55.954Z,3.83
2022-08-26T00:04:23.633Z,4.35
2022-08-26T00:06:50.219Z,4.60
2022-08-26T00:09:16.786Z,4.00
2022-08-26T00:11:44.345Z,4.00
2022-08-26T00:14:10.980Z,3.65
2022-08-26T00:16:37.807Z,4.00
2022-08-26T00:19:07.398Z,3.67
2022-08-26T00:21:34.412Z,3.58
2022-08-26T00:24:01.163Z,4.20
2022-08-26T00:26:28.497Z,3.80
2022-08-26T00:28:55.607Z,4.10
2022-08-26T00:31:21.910Z,3.92
2022-08-26T00:33:48.229Z,3.70
2022-08-26T00:36:19.969Z,3.83
2022-08-26T00:38:47.487Z,3.80
2022-08-26T00:41:13.917Z,3.40
2022-08-26T00:43:46.304Z,3.35
2022-08-26T00:46:16.501Z,3.38
2022-08-26T00:48:43.834Z,3.28
2022-08-26T00:51:19.617Z,2.85
2022-08-26T00:53:50.309Z,2.97
2022-08-26T00:56:27.120Z,2.92
2022-08-26T00:58:54.695Z,2.90
2022-08-26T01:01:22.985Z,2.60
2022-08-26T01:03:49.758Z,2.72
2022-08-26T01:06:16.400Z,2.58
2022-08-26T01:08:43.307Z,3.28
2022-08-26T01:11:09.706Z,2.83
2022-08-26T01:13:36.820Z,2.85
2022-08-26T01:16:04.459Z,2.63
2022-08-26T01:18:31.503Z,2.60
2022-08-26T01:21:16.497Z,2.50
2022-08-26T01:23:46.751Z,2.47
2022-08-26T01:26:20.046Z,2.85
2022-08-26T01:28:50.667Z,2.63
2022-08-26T01:31:21.604Z,2.30
2022-08-26T01:33:51.689Z,2.08
2022-08-26T01:36:18.371Z,2.10
2022-08-26T01:38:47.079Z,2.25
2022-08-26T01:41:19.525Z,2.10
2022-08-26T01:43:48.457Z,2.05
2022-08-26T01:46:15.793Z,2.80
2022-08-26T01:48:43.694Z,2.00
2022-08-26T01:51:11.060Z,2.22
2022-08-26T01:53:38.187Z,2.22
2022-08-26T01:56:08.329Z,2.42
2022-08-26T01:58:38.964Z,2.13
2022-08-26T02:01:05.803Z,2.30
2022-08-26T02:03:32.809Z,2.10
2022-08-26T02:06:03.706Z,2.17
2022-08-26T02:08:32.611Z,2.22
2022-08-26T02:10:59.161Z,2.03
2022-08-26T02:13:27.246Z,1.90
2022-08-26T02:15:54.146Z,2.10
2022-08-26T02:18:20.616Z,1.70
2022-08-26T02:20:51.597Z,1.83
2022-08-26T02:23:18.046Z,2.10
2022-08-26T02:25:50.637Z,2.47
2022-08-26T02:28:17.710Z,1.92
2022-08-26T02:30:47.078Z,1.60
2022-08-26T02:33:13.508Z,2.22
2022-08-26T02:35:39.806Z,2.15
2022-08-26T02:38:10.000Z,2.38
2022-08-26T02:40:40.446Z,1.95
2022-08-26T02:43:08.558Z,1.70
2022-08-26T02:45:35.628Z,1.88
2022-08-26T02:48:06.446Z,1.70
2022-08-26T02:50:34.177Z,1.35
2022-08-26T02:53:01.667Z,1.60
2022-08-26T02:55:28.906Z,1.90
2022-08-26T02:57:55.729Z,2.47
2022-08-26T03:00:22.556Z,1.60
2022-08-26T03:02:50.287Z,1.45
2022-08-26T03:05:17.858Z,1.98
2022-08-26T03:07:44.135Z,1.67
2022-08-26T03:10:12.713Z,2.13
2022-08-26T03:12:39.747Z,1.67
2022-08-26T03:15:17.813Z,1.60
2022-08-26T03:17:45.534Z,2.05
2022-08-26T03:20:11.844Z,1.40
2022-08-26T03:22:40.063Z,2.08
2022-08-26T03:25:07.476Z,1.70
2022-08-26T03:27:33.814Z,1.90
2022-08-26T03:30:18.877Z,2.13
2022-08-26T03:32:46.616Z,1.75
2022-08-26T03:35:12.896Z,1.65
2022-08-26T03:37:40.300Z,1.60
2022-08-26T03:40:10.465Z,1.73
2022-08-26T03:42:38.831Z,1.75
2022-08-26T03:45:05.841Z,1.95
2022-08-26T03:47:32.533Z,1.63
2022-08-26T03:49:59.312Z,1.92
2022-08-26T03:52:25.947Z,1.73
2022-08-26T03:54:53.173Z,1.52
2022-08-26T03:57:19.689Z,2.40
2022-08-26T03:59:45.938Z,1.50
2022-08-26T04:02:12.673Z,1.70
2022-08-26T04:04:40.158Z,1.65
2022-08-26T04:07:06.796Z,1.73
2022-08-26T04:09:35.229Z,2.13
2022-08-26T04:12:03.837Z,1.55
2022-08-26T04:14:31.082Z,1.55
2022-08-26T04:16:58.567Z,1.90
2022-08-26T04:19:25.750Z,1.60
2022-08-26T04:21:55.502Z,1.52
2022-08-26T04:24:22.996Z,1.92
2022-08-26T04:26:49.430Z,1.30
2022-08-26T04:29:18.190Z,1.33
2022-08-26T04:31:44.587Z,1.58
2022-08-26T04:34:11.178Z,1.40
2022-08-26T04:36:37.965Z,1.55
2022-08-26T04:39:05.150Z,1.70
2022-08-26T18:59:35.558Z,2.20
2022-08-26T19:02:01.930Z,1.55
2022-08-26T19:04:28.431Z,1.77
2022-08-26T19:06:54.932Z,1.83
2022-08-26T19:09:21.630Z,1.90
2022-08-26T19:11:50.027Z,2.15
2022-08-26T19:14:17.399Z,2.08
2022-08-26T19:16:47.429Z,2.05
2022-08-26T19:19:14.663Z,1.90
2022-08-26T19:21:40.984Z,1.83
2022-08-26T19:24:12.097Z,2.03
2022-08-26T19:26:38.974Z,1.70
2022-08-26T19:29:05.336Z,2.00
2022-08-26T19:31:31.632Z,2.00
2022-08-26T19:33:58.951Z,2.08
2022-08-26T19:36:25.774Z,1.90
2022-08-26T19:38:52.533Z,2.00
2022-08-26T19:41:20.379Z,1.60
2022-08-26T19:43:46.878Z,1.85
2022-08-26T19:46:14.844Z,1.80
2022-08-26T19:48:44.676Z,1.77
2022-08-26T19:51:19.339Z,1.70
2022-08-26T19:53:46.598Z,1.63
2022-08-26T19:56:13.852Z,1.67
2022-08-26T19:58:40.446Z,1.80
2022-08-26T20:01:06.964Z,2.05
2022-08-26T20:03:33.851Z,2.00
2022-08-26T20:06:00.489Z,1.98
2022-08-26T20:08:26.796Z,2.05
2022-08-26T20:10:53.910Z,1.98
2022-08-26T20:13:21.843Z,2.00
2022-08-26T20:15:48.465Z,2.22
2022-08-26T20:18:33.619Z,1.95
2022-08-26T20:21:18.483Z,1.90
2022-08-26T20:23:44.748Z,1.83
2022-08-26T20:26:11.072Z,2.00
2022-08-26T20:28:37.562Z,1.85
2022-08-26T20:31:03.830Z,2.40
2022-08-26T20:33:30.908Z,2.15
2022-08-26T20:38:38.478Z,1.90
2022-08-26T20:41:04.875Z,2.13
2022-08-26T20:43:31.105Z,1.60
2022-08-26T20:45:57.425Z,1.80
2022-08-26T20:48:23.762Z,2.10
2022-08-26T20:50:50.021Z,1.95
2022-08-26T20:53:16.283Z,1.83
2022-08-26T20:55:42.694Z,2.00
2022-08-26T20:58:09.097Z,2.10
2022-08-26T21:00:37.576Z,2.22
2022-08-26T21:03:03.958Z,1.90
2022-08-26T21:05:30.196Z,2.20
2022-08-26T21:07:56.462Z,2.15
2022-08-26T21:10:22.737Z,1.77
2022-08-26T21:12:49.867Z,2.10
2022-08-26T21:15:16.363Z,2.08
2022-08-26T21:17:42.590Z,2.33
2022-08-26T21:20:09.134Z,2.30
2022-08-26T21:22:35.435Z,2.15
2022-08-26T21:25:01.739Z,2.33
2022-08-26T21:27:28.096Z,1.90
2022-08-26T21:29:54.369Z,2.00
2022-08-26T21:32:20.618Z,2.20
2022-08-26T21:34:46.877Z,2.25
2022-08-26T21:37:16.559Z,2.28
2022-08-26T21:39:43.268Z,2.03
2022-08-26T21:42:09.594Z,1.92
2022-08-26T21:44:36.008Z,2.15
2022-08-26T21:47:03.367Z,2.55
2022-08-26T21:49:29.649Z,1.60
2022-08-26T21:51:55.922Z,2.08
2022-08-26T21:54:22.212Z,2.45
2022-08-26T21:56:49.108Z,2.03
2022-08-26T21:59:16.830Z,1.95
2022-08-26T22:01:43.428Z,1.88
2022-08-26T22:04:09.965Z,1.88
2022-08-26T22:06:40.142Z,1.95
2022-08-26T22:09:06.410Z,1.60
2022-08-26T22:11:32.667Z,1.90
2022-08-26T22:13:59.210Z,1.90
2022-08-26T22:16:26.658Z,2.03
2022-08-26T22:18:54.739Z,1.83
2022-08-26T22:21:23.670Z,1.95
2022-08-26T22:23:50.015Z,1.90
2022-08-26T22:26:25.585Z,2.05
2022-08-26T22:28:55.603Z,1.88
2022-08-26T22:31:28.093Z,2.25
2022-08-26T22:34:06.276Z,2.00
2022-08-26T22:36:32.603Z,1.90
2022-08-26T22:38:59.014Z,2.17
2022-08-26T22:41:26.053Z,2.03
2022-08-26T22:43:52.619Z,2.13
2022-08-26T22:46:24.141Z,1.90
2022-08-26T22:48:53.769Z,1.83
2022-08-26T22:51:20.664Z,1.75
2022-08-26T22:53:47.067Z,2.10
2022-08-26T22:56:14.350Z,2.17
2022-08-26T22:58:41.014Z,2.33
2022-08-26T23:01:07.447Z,2.05
2022-08-26T23:03:34.241Z,2.15
2022-08-26T23:06:00.882Z,1.65
2022-08-26T23:08:27.471Z,1.88
2022-08-26T23:10:53.730Z,2.13
2022-08-26T23:13:20.039Z,1.67
2022-08-26T23:15:46.570Z,1.90
2022-08-26T23:18:13.959Z,1.83
2022-08-26T23:20:40.742Z,2.00
2022-08-26T23:23:07.476Z,2.10
2022-08-26T23:25:34.148Z,1.83
2022-08-26T23:28:00.914Z,1.88
2022-08-26T23:30:28.351Z,1.98
2022-08-26T23:32:54.736Z,1.98
2022-08-26T23:35:21.595Z,1.95
2022-08-26T23:37:51.016Z,2.20
2022-08-26T23:40:19.737Z,1.90
2022-08-26T23:42:46.251Z,1.88
2022-08-26T23:45:13.336Z,2.10
2022-08-26T23:47:40.223Z,2.00
2022-08-26T23:50:07.298Z,1.90
2022-08-26T23:52:52.218Z,2.30
2022-08-26T23:55:18.525Z,1.95
2022-08-26T23:57:44.809Z,1.92
